sensor_id;sensor_type;location;lat;lon;timestamp;temperature;humidity
1103;DHT22;538;42.654;23.376;2022-07-29T00:01:44;19.20;85.10
1103;DHT22;538;42.654;23.376;2022-07-29T00:04:13;19.20;82.80
1103;DHT22;538;42.654;23.376;2022-07-29T00:06:40;19.20;81.10
1103;DHT22;538;42.654;23.376;2022-07-29T00:09:08;19.10;81.80
1103;DHT22;538;42.654;23.376;2022-07-29T00:11:35;19.00;82.20
1103;DHT22;538;42.654;23.376;2022-07-29T00:14:03;19.00;83.60
1103;DHT22;538;42.654;23.376;2022-07-29T00:16:30;18.90;84.50
1103;DHT22;538;42.654;23.376;2022-07-29T00:18:58;18.80;85.80
1103;DHT22;538;42.654;23.376;2022-07-29T00:21:27;18.80;87.90
1103;DHT22;538;42.654;23.376;2022-07-29T00:23:54;18.80;88.00
1103;DHT22;538;42.654;23.376;2022-07-29T00:26:21;18.80;89.10
1103;DHT22;538;42.654;23.376;2022-07-29T00:28:48;18.80;88.70
1103;DHT22;538;42.654;23.376;2022-07-29T00:31:16;19.00;86.80
1103;DHT22;538;42.654;23.376;2022-07-29T00:33:43;19.00;85.80
1103;DHT22;538;42.654;23.376;2022-07-29T00:36:10;19.00;82.80
1103;DHT22;538;42.654;23.376;2022-07-29T00:38:37;19.10;83.60
1103;DHT22;538;42.654;23.376;2022-07-29T00:41:07;19.00;82.80
1103;DHT22;538;42.654;23.376;2022-07-29T00:43:34;19.10;83.30
1103;DHT22;538;42.654;23.376;2022-07-29T00:46:01;19.20;85.00
1103;DHT22;538;42.654;23.376;2022-07-29T00:48:28;19.20;81.90
1103;DHT22;538;42.654;23.376;2022-07-29T00:50:57;19.20;79.80
1103;DHT22;538;42.654;23.376;2022-07-29T00:53:25;19.20;79.80
1103;DHT22;538;42.654;23.376;2022-07-29T00:55:55;19.30;80.10
1103;DHT22;538;42.654;23.376;2022-07-29T00:58:23;19.30;81.10
1103;DHT22;538;42.654;23.376;2022-07-29T01:00:50;19.40;78.50
1103;DHT22;538;42.654;23.376;2022-07-29T01:03:18;19.50;78.90
1103;DHT22;538;42.654;23.376;2022-07-29T01:05:46;19.40;77.50
1103;DHT22;538;42.654;23.376;2022-07-29T01:08:14;19.40;80.00
1103;DHT22;538;42.654;23.376;2022-07-29T01:10:44;19.40;81.60
1103;DHT22;538;42.654;23.376;2022-07-29T01:13:14;19.20;84.60
1103;DHT22;538;42.654;23.376;2022-07-29T01:15:44;19.10;89.60
1103;DHT22;538;42.654;23.376;2022-07-29T01:18:18;19.10;90.10
1103;DHT22;538;42.654;23.376;2022-07-29T01:21:09;19.00;91.00
1103;DHT22;538;42.654;23.376;2022-07-29T01:23:52;18.90;91.40
1103;DHT22;538;42.654;23.376;2022-07-29T01:26:42;18.80;91.70
1103;DHT22;538;42.654;23.376;2022-07-29T01:29:18;18.80;92.70
1103;DHT22;538;42.654;23.376;2022-07-29T01:31:55;18.90;93.00
1103;DHT22;538;42.654;23.376;2022-07-29T01:34:27;18.80;94.10
1103;DHT22;538;42.654;23.376;2022-07-29T01:37:00;18.80;95.50
1103;DHT22;538;42.654;23.376;2022-07-29T01:39:32;18.90;94.40
1103;DHT22;538;42.654;23.376;2022-07-29T01:42:06;18.90;94.30
1103;DHT22;538;42.654;23.376;2022-07-29T01:44:46;18.90;94.10
1103;DHT22;538;42.654;23.376;2022-07-29T01:47:19;18.80;95.30
1103;DHT22;538;42.654;23.376;2022-07-29T01:49:51;18.70;97.90
1103;DHT22;538;42.654;23.376;2022-07-29T01:52:23;18.60;99.30
1103;DHT22;538;42.654;23.376;2022-07-29T01:54:55;18.60;99.90
1103;DHT22;538;42.654;23.376;2022-07-29T01:57:27;18.50;99.90
1103;DHT22;538;42.654;23.376;2022-07-29T01:59:59;18.40;99.90
1103;DHT22;538;42.654;23.376;2022-07-29T02:02:28;18.50;99.90
1103;DHT22;538;42.654;23.376;2022-07-29T02:04:57;18.50;99.90
1103;DHT22;538;42.654;23.376;2022-07-29T02:07:28;18.60;99.90
1103;DHT22;538;42.654;23.376;2022-07-29T02:09:57;18.60;98.50
1103;DHT22;538;42.654;23.376;2022-07-29T02:12:25;18.60;96.70
1103;DHT22;538;42.654;23.376;2022-07-29T02:14:57;18.60;93.90
1103;DHT22;538;42.654;23.376;2022-07-29T02:17:31;18.70;92.80
1103;DHT22;538;42.654;23.376;2022-07-29T02:20:02;18.60;93.10
1103;DHT22;538;42.654;23.376;2022-07-29T02:22:31;18.50;93.30
1103;DHT22;538;42.654;23.376;2022-07-29T02:25:01;18.50;93.70
1103;DHT22;538;42.654;23.376;2022-07-29T02:27:28;18.60;93.10
1103;DHT22;538;42.654;23.376;2022-07-29T02:30:00;18.50;92.40
1103;DHT22;538;42.654;23.376;2022-07-29T02:32:28;18.40;94.10
1103;DHT22;538;42.654;23.376;2022-07-29T02:34:57;18.40;94.40
1103;DHT22;538;42.654;23.376;2022-07-29T02:37:26;18.40;94.00
1103;DHT22;538;42.654;23.376;2022-07-29T02:39:55;18.30;96.30
1103;DHT22;538;42.654;23.376;2022-07-29T02:42:24;18.30;95.60
1103;DHT22;538;42.654;23.376;2022-07-29T02:44:53;18.30;96.30
1103;DHT22;538;42.654;23.376;2022-07-29T02:47:24;18.40;96.70
1103;DHT22;538;42.654;23.376;2022-07-29T02:49:57;18.30;98.00
1103;DHT22;538;42.654;23.376;2022-07-29T02:52:31;18.40;97.40
1103;DHT22;538;42.654;23.376;2022-07-29T02:55:01;18.30;96.90
1103;DHT22;538;42.654;23.376;2022-07-29T02:57:32;18.30;97.40
1103;DHT22;538;42.654;23.376;2022-07-29T03:00:06;18.40;95.90
1103;DHT22;538;42.654;23.376;2022-07-29T03:02:38;18.40;96.10
1103;DHT22;538;42.654;23.376;2022-07-29T03:05:09;18.50;95.60
1103;DHT22;538;42.654;23.376;2022-07-29T03:07:38;18.50;95.20
1103;DHT22;538;42.654;23.376;2022-07-29T03:10:07;18.50;96.30
1103;DHT22;538;42.654;23.376;2022-07-29T03:12:35;18.50;98.40
1103;DHT22;538;42.654;23.376;2022-07-29T03:15:04;18.40;98.80
1103;DHT22;538;42.654;23.376;2022-07-29T03:17:31;18.30;99.90
1103;DHT22;538;42.654;23.376;2022-07-29T03:20:01;18.30;99.90
1103;DHT22;538;42.654;23.376;2022-07-29T03:22:28;18.20;99.90
1103;DHT22;538;42.654;23.376;2022-07-29T03:24:55;18.20;99.90
1103;DHT22;538;42.654;23.376;2022-07-29T03:27:22;18.10;99.90
1103;DHT22;538;42.654;23.376;2022-07-29T03:29:50;18.10;99.90
1103;DHT22;538;42.654;23.376;2022-07-29T03:32:17;18.00;99.90
1103;DHT22;538;42.654;23.376;2022-07-29T03:34:44;18.00;99.90
1103;DHT22;538;42.654;23.376;2022-07-29T03:37:13;17.90;99.90
1103;DHT22;538;42.654;23.376;2022-07-29T03:39:41;17.90;99.90
1103;DHT22;538;42.654;23.376;2022-07-29T03:42:12;17.90;99.90
1103;DHT22;538;42.654;23.376;2022-07-29T03:44:42;17.80;99.90
1103;DHT22;538;42.654;23.376;2022-07-29T03:47:11;17.80;99.90
1103;DHT22;538;42.654;23.376;2022-07-29T03:49:41;17.80;99.90
1103;DHT22;538;42.654;23.376;2022-07-29T03:52:09;17.90;99.90
1103;DHT22;538;42.654;23.376;2022-07-29T03:54:38;17.80;99.90
1103;DHT22;538;42.654;23.376;2022-07-29T03:57:07;17.80;99.90
1103;DHT22;538;42.654;23.376;2022-07-29T03:59:37;17.90;99.90
1103;DHT22;538;42.654;23.376;2022-07-29T04:02:09;18.00;99.90
1103;DHT22;538;42.654;23.376;2022-07-29T04:04:38;18.00;99.90
1103;DHT22;538;42.654;23.376;2022-07-29T04:07:06;18.00;99.90
1103;DHT22;538;42.654;23.376;2022-07-29T04:09:33;18.10;99.90
1103;DHT22;538;42.654;23.376;2022-07-29T04:12:02;18.10;99.90
1103;DHT22;538;42.654;23.376;2022-07-29T04:14:30;18.20;99.90
1103;DHT22;538;42.654;23.376;2022-07-29T04:16:57;18.20;99.90
1103;DHT22;538;42.654;23.376;2022-07-29T04:19:24;18.30;99.90
1103;DHT22;538;42.654;23.376;2022-07-29T04:21:51;18.40;99.90
1103;DHT22;538;42.654;23.376;2022-07-29T04:24:19;18.50;99.90
1103;DHT22;538;42.654;23.376;2022-07-29T04:26:46;18.50;99.90
1103;DHT22;538;42.654;23.376;2022-07-29T04:29:15;18.50;99.90
1103;DHT22;538;42.654;23.376;2022-07-29T04:31:43;18.70;98.70
1103;DHT22;538;42.654;23.376;2022-07-29T04:34:11;18.70;97.70
1103;DHT22;538;42.654;23.376;2022-07-29T04:36:38;18.70;95.60
1103;DHT22;538;42.654;23.376;2022-07-29T04:39:06;18.70;96.50
1103;DHT22;538;42.654;23.376;2022-07-29T04:41:33;18.70;96.20
1103;DHT22;538;42.654;23.376;2022-07-29T04:44:00;18.80;95.80
1103;DHT22;538;42.654;23.376;2022-07-29T04:46:32;18.80;94.80
1103;DHT22;538;42.654;23.376;2022-07-29T04:48:59;18.90;93.70
1103;DHT22;538;42.654;23.376;2022-07-29T04:51:26;18.90;93.30
1103;DHT22;538;42.654;23.376;2022-07-29T04:53:53;19.00;92.00
1103;DHT22;538;42.654;23.376;2022-07-29T04:56:20;19.00;92.60
1103;DHT22;538;42.654;23.376;2022-07-29T04:58:48;19.00;92.00
1103;DHT22;538;42.654;23.376;2022-07-29T05:01:16;19.20;92.50
1103;DHT22;538;42.654;23.376;2022-07-29T05:03:47;19.20;91.70
1103;DHT22;538;42.654;23.376;2022-07-29T05:06:15;19.30;90.80
1103;DHT22;538;42.654;23.376;2022-07-29T05:08:42;19.30;90.30
1103;DHT22;538;42.654;23.376;2022-07-29T05:11:09;19.40;90.00
1103;DHT22;538;42.654;23.376;2022-07-29T05:13:36;19.50;86.80
1103;DHT22;538;42.654;23.376;2022-07-29T05:16:03;19.50;85.30
1103;DHT22;538;42.654;23.376;2022-07-29T05:18:31;19.60;84.70
1103;DHT22;538;42.654;23.376;2022-07-29T05:20:59;19.60;82.20
1103;DHT22;538;42.654;23.376;2022-07-29T05:23:27;19.70;82.40
1103;DHT22;538;42.654;23.376;2022-07-29T05:25:54;19.70;81.50
1103;DHT22;538;42.654;23.376;2022-07-29T05:28:21;19.90;80.90
1103;DHT22;538;42.654;23.376;2022-07-29T05:30:48;19.90;79.30
1103;DHT22;538;42.654;23.376;2022-07-29T05:33:16;20.00;80.20
1103;DHT22;538;42.654;23.376;2022-07-29T05:35:43;20.10;79.00
1103;DHT22;538;42.654;23.376;2022-07-29T05:38:12;20.20;78.20
1103;DHT22;538;42.654;23.376;2022-07-29T05:40:40;20.20;76.50
1103;DHT22;538;42.654;23.376;2022-07-29T05:43:07;20.30;74.00
1103;DHT22;538;42.654;23.376;2022-07-29T05:45:34;20.40;74.80
1103;DHT22;538;42.654;23.376;2022-07-29T05:48:02;20.40;71.40
1103;DHT22;538;42.654;23.376;2022-07-29T05:50:30;20.50;68.70
1103;DHT22;538;42.654;23.376;2022-07-29T05:52:57;20.50;69.50
1103;DHT22;538;42.654;23.376;2022-07-29T05:55:26;20.60;69.40
1103;DHT22;538;42.654;23.376;2022-07-29T05:57:54;20.80;65.20
1103;DHT22;538;42.654;23.376;2022-07-29T06:00:22;20.90;63.30
1103;DHT22;538;42.654;23.376;2022-07-29T06:02:49;21.10;59.70
1103;DHT22;538;42.654;23.376;2022-07-29T06:05:17;21.10;60.20
1103;DHT22;538;42.654;23.376;2022-07-29T06:07:45;21.20;61.80
1103;DHT22;538;42.654;23.376;2022-07-29T06:10:12;21.30;62.60
1103;DHT22;538;42.654;23.376;2022-07-29T06:12:41;21.30;62.20
1103;DHT22;538;42.654;23.376;2022-07-29T06:15:09;21.40;59.70
1103;DHT22;538;42.654;23.376;2022-07-29T06:17:37;21.50;59.70
1103;DHT22;538;42.654;23.376;2022-07-29T06:20:05;21.60;59.20
1103;DHT22;538;42.654;23.376;2022-07-29T06:22:32;21.60;60.80
1103;DHT22;538;42.654;23.376;2022-07-29T06:25:01;21.70;60.40
1103;DHT22;538;42.654;23.376;2022-07-29T06:27:28;21.90;59.70
1103;DHT22;538;42.654;23.376;2022-07-29T06:29:57;21.80;57.50
1103;DHT22;538;42.654;23.376;2022-07-29T06:32:24;21.80;55.60
1103;DHT22;538;42.654;23.376;2022-07-29T06:34:52;21.90;55.00
1103;DHT22;538;42.654;23.376;2022-07-29T06:37:19;21.90;54.60
1103;DHT22;538;42.654;23.376;2022-07-29T06:39:47;22.00;55.70
1103;DHT22;538;42.654;23.376;2022-07-29T06:42:35;22.10;55.90
1103;DHT22;538;42.654;23.376;2022-07-29T06:45:04;22.30;53.50
1103;DHT22;538;42.654;23.376;2022-07-29T06:47:31;22.40;48.90
1103;DHT22;538;42.654;23.376;2022-07-29T06:49:58;22.50;48.70
1103;DHT22;538;42.654;23.376;2022-07-29T06:52:25;22.60;46.30
1103;DHT22;538;42.654;23.376;2022-07-29T06:54:53;22.60;47.00
1103;DHT22;538;42.654;23.376;2022-07-29T06:57:22;22.60;49.80
1103;DHT22;538;42.654;23.376;2022-07-29T06:59:49;22.80;49.90
1103;DHT22;538;42.654;23.376;2022-07-29T07:02:18;22.90;50.20
1103;DHT22;538;42.654;23.376;2022-07-29T07:04:45;23.10;45.90
1103;DHT22;538;42.654;23.376;2022-07-29T07:07:12;23.20;46.60
1103;DHT22;538;42.654;23.376;2022-07-29T07:09:39;23.30;40.60
1103;DHT22;538;42.654;23.376;2022-07-29T07:12:07;23.30;40.40
1103;DHT22;538;42.654;23.376;2022-07-29T07:14:34;23.40;38.90
1103;DHT22;538;42.654;23.376;2022-07-29T07:17:01;23.50;40.00
1103;DHT22;538;42.654;23.376;2022-07-29T07:19:31;23.70;41.10
1103;DHT22;538;42.654;23.376;2022-07-29T07:21:58;23.80;41.50
1103;DHT22;538;42.654;23.376;2022-07-29T07:24:25;23.90;38.50
1103;DHT22;538;42.654;23.376;2022-07-29T07:26:53;24.00;32.10
1103;DHT22;538;42.654;23.376;2022-07-29T07:29:20;24.10;35.90
1103;DHT22;538;42.654;23.376;2022-07-29T07:31:47;24.10;36.70
1103;DHT22;538;42.654;23.376;2022-07-29T07:34:14;24.10;32.60
1103;DHT22;538;42.654;23.376;2022-07-29T07:36:43;24.30;35.00
1103;DHT22;538;42.654;23.376;2022-07-29T07:39:10;24.40;32.50
1103;DHT22;538;42.654;23.376;2022-07-29T07:41:37;24.60;31.40
1103;DHT22;538;42.654;23.376;2022-07-29T07:44:04;24.60;32.80
1103;DHT22;538;42.654;23.376;2022-07-29T07:46:31;24.70;33.70
1103;DHT22;538;42.654;23.376;2022-07-29T07:48:58;24.80;31.30
1103;DHT22;538;42.654;23.376;2022-07-29T07:51:25;24.90;30.50
1103;DHT22;538;42.654;23.376;2022-07-29T07:53:54;25.00;28.90
1103;DHT22;538;42.654;23.376;2022-07-29T07:56:22;25.20;29.50
1103;DHT22;538;42.654;23.376;2022-07-29T07:58:49;25.20;28.20
1103;DHT22;538;42.654;23.376;2022-07-29T08:01:16;25.30;27.80
1103;DHT22;538;42.654;23.376;2022-07-29T08:03:46;25.40;27.60
1103;DHT22;538;42.654;23.376;2022-07-29T08:06:14;25.50;25.60
1103;DHT22;538;42.654;23.376;2022-07-29T08:08:41;25.60;26.00
1103;DHT22;538;42.654;23.376;2022-07-29T08:11:12;25.70;25.30
1103;DHT22;538;42.654;23.376;2022-07-29T08:13:39;25.70;24.20
1103;DHT22;538;42.654;23.376;2022-07-29T08:16:07;25.70;24.80
1103;DHT22;538;42.654;23.376;2022-07-29T08:18:42;25.80;25.10
1103;DHT22;538;42.654;23.376;2022-07-29T08:21:09;26.00;21.40
1103;DHT22;538;42.654;23.376;2022-07-29T08:23:36;26.10;22.00
1103;DHT22;538;42.654;23.376;2022-07-29T08:26:05;26.10;23.60
1103;DHT22;538;42.654;23.376;2022-07-29T08:28:37;26.20;22.80
1103;DHT22;538;42.654;23.376;2022-07-29T08:31:05;26.40;22.40
1103;DHT22;538;42.654;23.376;2022-07-29T08:33:33;26.50;21.50
1103;DHT22;538;42.654;23.376;2022-07-29T08:36:00;26.60;19.70
1103;DHT22;538;42.654;23.376;2022-07-29T08:38:27;26.70;19.90
1103;DHT22;538;42.654;23.376;2022-07-29T08:40:55;26.90;19.00
1103;DHT22;538;42.654;23.376;2022-07-29T08:43:25;27.00;18.60
1103;DHT22;538;42.654;23.376;2022-07-29T08:46:04;27.10;18.80
1103;DHT22;538;42.654;23.376;2022-07-29T08:48:31;27.20;18.80
1103;DHT22;538;42.654;23.376;2022-07-29T08:50:59;27.20;16.90
1103;DHT22;538;42.654;23.376;2022-07-29T08:53:27;27.40;16.20
1103;DHT22;538;42.654;23.376;2022-07-29T08:55:55;27.60;16.70
1103;DHT22;538;42.654;23.376;2022-07-29T08:58:23;27.60;15.60
1103;DHT22;538;42.654;23.376;2022-07-29T09:00:53;27.60;16.80
1103;DHT22;538;42.654;23.376;2022-07-29T09:03:29;27.80;17.30
1103;DHT22;538;42.654;23.376;2022-07-29T09:06:02;28.10;16.20
1103;DHT22;538;42.654;23.376;2022-07-29T09:08:31;28.30;15.10
1103;DHT22;538;42.654;23.376;2022-07-29T09:11:00;28.70;13.10
1103;DHT22;538;42.654;23.376;2022-07-29T09:13:27;29.10;14.00
1103;DHT22;538;42.654;23.376;2022-07-29T09:15:54;29.30;12.80
1103;DHT22;538;42.654;23.376;2022-07-29T09:18:36;29.30;12.40
1103;DHT22;538;42.654;23.376;2022-07-29T09:21:04;29.30;12.50
1103;DHT22;538;42.654;23.376;2022-07-29T09:24:03;29.30;12.40
1103;DHT22;538;42.654;23.376;2022-07-29T09:26:31;29.40;12.10
1103;DHT22;538;42.654;23.376;2022-07-29T09:29:00;29.40;12.00
1103;DHT22;538;42.654;23.376;2022-07-29T09:31:35;29.50;12.80
1103;DHT22;538;42.654;23.376;2022-07-29T09:34:05;29.50;12.20
1103;DHT22;538;42.654;23.376;2022-07-29T09:36:39;28.50;12.20
1103;DHT22;538;42.654;23.376;2022-07-29T09:39:06;29.50;12.10
1103;DHT22;538;42.654;23.376;2022-07-29T09:41:45;29.50;12.50
1103;DHT22;538;42.654;23.376;2022-07-29T09:44:13;29.40;13.40
1103;DHT22;538;42.654;23.376;2022-07-29T09:46:41;29.70;12.20
1103;DHT22;538;42.654;23.376;2022-07-29T09:49:20;29.90;11.20
1103;DHT22;538;42.654;23.376;2022-07-29T09:51:47;30.10;11.20
1103;DHT22;538;42.654;23.376;2022-07-29T09:54:23;30.50;10.60
1103;DHT22;538;42.654;23.376;2022-07-29T09:56:52;31.70;9.60
1103;DHT22;538;42.654;23.376;2022-07-29T09:59:19;33.70;6.00
1103;DHT22;538;42.654;23.376;2022-07-29T10:01:50;34.40;6.30
1103;DHT22;538;42.654;23.376;2022-07-29T10:04:17;34.30;5.20
1103;DHT22;538;42.654;23.376;2022-07-29T10:07:00;35.50;4.70
1103;DHT22;538;42.654;23.376;2022-07-29T10:09:28;36.10;3.90
1103;DHT22;538;42.654;23.376;2022-07-29T10:12:06;35.80;1.30
1103;DHT22;538;42.654;23.376;2022-07-29T10:14:35;37.30;1.40
1103;DHT22;538;42.654;23.376;2022-07-29T10:17:03;38.10;1.00
1103;DHT22;538;42.654;23.376;2022-07-29T10:19:31;37.80;1.00
1103;DHT22;538;42.654;23.376;2022-07-29T10:22:01;36.20;1.00
1103;DHT22;538;42.654;23.376;2022-07-29T10:24:30;34.70;1.00
1103;DHT22;538;42.654;23.376;2022-07-29T10:26:59;33.90;2.30
1103;DHT22;538;42.654;23.376;2022-07-29T10:29:26;33.90;3.90
1103;DHT22;538;42.654;23.376;2022-07-29T10:32:16;35.70;2.10
1103;DHT22;538;42.654;23.376;2022-07-29T10:37:49;38.90;1.00
1103;DHT22;538;42.654;23.376;2022-07-29T10:40:26;41.40;1.00
1103;DHT22;538;42.654;23.376;2022-07-29T10:43:17;40.70;1.00
1103;DHT22;538;42.654;23.376;2022-07-29T10:45:46;41.10;1.00
1103;DHT22;538;42.654;23.376;2022-07-29T10:48:13;42.10;1.00
1103;DHT22;538;42.654;23.376;2022-07-29T10:50:57;40.90;1.00
1103;DHT22;538;42.654;23.376;2022-07-29T10:53:46;40.30;1.00
1103;DHT22;538;42.654;23.376;2022-07-29T10:56:24;40.30;1.00
1103;DHT22;538;42.654;23.376;2022-07-29T10:59:25;40.40;1.00
1103;DHT22;538;42.654;23.376;2022-07-29T11:01:54;39.80;1.00
1103;DHT22;538;42.654;23.376;2022-07-29T11:05:00;39.70;1.00
1103;DHT22;538;42.654;23.376;2022-07-29T11:07:29;39.70;1.00
1103;DHT22;538;42.654;23.376;2022-07-29T11:10:23;40.20;1.00
1103;DHT22;538;42.654;23.376;2022-07-29T11:12:50;40.30;1.00
1103;DHT22;538;42.654;23.376;2022-07-29T11:15:20;41.10;1.00
1103;DHT22;538;42.654;23.376;2022-07-29T11:18:03;39.60;1.00
1103;DHT22;538;42.654;23.376;2022-07-29T11:20:32;41.00;1.00
1103;DHT22;538;42.654;23.376;2022-07-29T11:22:59;40.60;1.00
1103;DHT22;538;42.654;23.376;2022-07-29T11:25:32;40.70;1.00
1103;DHT22;538;42.654;23.376;2022-07-29T11:28:12;39.90;1.00
1103;DHT22;538;42.654;23.376;2022-07-29T11:30:48;39.80;1.00
1103;DHT22;538;42.654;23.376;2022-07-29T11:33:29;39.70;1.00
1103;DHT22;538;42.654;23.376;2022-07-29T11:36:10;39.30;1.00
1103;DHT22;538;42.654;23.376;2022-07-29T11:38:37;39.20;1.00
1103;DHT22;538;42.654;23.376;2022-07-29T11:41:26;38.90;1.00
1103;DHT22;538;42.654;23.376;2022-07-29T11:43:56;39.10;1.00
1103;DHT22;538;42.654;23.376;2022-07-29T11:46:50;38.50;1.00
1103;DHT22;538;42.654;23.376;2022-07-29T11:49:21;39.80;1.00
1103;DHT22;538;42.654;23.376;2022-07-29T11:51:52;38.90;1.00
1103;DHT22;538;42.654;23.376;2022-07-29T11:54:24;39.90;1.00
1103;DHT22;538;42.654;23.376;2022-07-29T11:56:53;38.80;1.00
1103;DHT22;538;42.654;23.376;2022-07-29T11:59:21;40.40;1.00
1103;DHT22;538;42.654;23.376;2022-07-29T12:01:55;38.70;1.00
1103;DHT22;538;42.654;23.376;2022-07-29T12:04:23;39.60;1.00
1103;DHT22;538;42.654;23.376;2022-07-29T12:06:50;39.90;1.00
1103;DHT22;538;42.654;23.376;2022-07-29T12:09:18;40.00;1.00
1103;DHT22;538;42.654;23.376;2022-07-29T12:11:46;38.50;1.00
1103;DHT22;538;42.654;23.376;2022-07-29T12:14:26;38.00;1.00
1103;DHT22;538;42.654;23.376;2022-07-29T12:16:53;37.50;1.00
1103;DHT22;538;42.654;23.376;2022-07-29T12:19:20;36.90;1.00
1103;DHT22;538;42.654;23.376;2022-07-29T12:21:49;36.50;1.00
1103;DHT22;538;42.654;23.376;2022-07-29T12:24:17;35.50;1.00
1103;DHT22;538;42.654;23.376;2022-07-29T12:26:50;35.70;1.00
1103;DHT22;538;42.654;23.376;2022-07-29T12:29:18;35.20;1.00
1103;DHT22;538;42.654;23.376;2022-07-29T12:31:51;35.40;1.00
1103;DHT22;538;42.654;23.376;2022-07-29T12:34:20;34.80;1.00
1103;DHT22;538;42.654;23.376;2022-07-29T12:36:49;34.80;1.00
1103;DHT22;538;42.654;23.376;2022-07-29T12:39:19;34.40;1.00
1103;DHT22;538;42.654;23.376;2022-07-29T12:41:46;34.40;1.00
1103;DHT22;538;42.654;23.376;2022-07-29T12:44:14;33.90;1.00
1103;DHT22;538;42.654;23.376;2022-07-29T12:46:41;33.70;1.00
1103;DHT22;538;42.654;23.376;2022-07-29T12:49:09;33.80;1.00
1103;DHT22;538;42.654;23.376;2022-07-29T12:51:38;33.60;1.00
1103;DHT22;538;42.654;23.376;2022-07-29T12:54:07;33.80;1.00
1103;DHT22;538;42.654;23.376;2022-07-29T12:56:36;33.60;1.00
1103;DHT22;538;42.654;23.376;2022-07-29T12:59:12;33.80;1.00
1103;DHT22;538;42.654;23.376;2022-07-29T13:01:39;33.80;1.00
1103;DHT22;538;42.654;23.376;2022-07-29T13:04:07;34.10;1.00
1103;DHT22;538;42.654;23.376;2022-07-29T13:06:37;33.80;1.00
1103;DHT22;538;42.654;23.376;2022-07-29T13:09:09;34.00;1.00
1103;DHT22;538;42.654;23.376;2022-07-29T13:11:38;34.00;1.00
1103;DHT22;538;42.654;23.376;2022-07-29T13:14:07;34.20;1.00
1103;DHT22;538;42.654;23.376;2022-07-29T13:16:35;34.30;1.00
1103;DHT22;538;42.654;23.376;2022-07-29T13:19:11;34.00;1.00
1103;DHT22;538;42.654;23.376;2022-07-29T13:21:40;34.00;1.00
1103;DHT22;538;42.654;23.376;2022-07-29T13:24:08;33.90;1.00
1103;DHT22;538;42.654;23.376;2022-07-29T13:26:39;34.00;1.00
1103;DHT22;538;42.654;23.376;2022-07-29T13:29:06;33.80;1.10
1103;DHT22;538;42.654;23.376;2022-07-29T13:31:33;33.80;1.00
1103;DHT22;538;42.654;23.376;2022-07-29T13:34:00;33.90;1.00
1103;DHT22;538;42.654;23.376;2022-07-29T13:36:27;33.70;1.00
1103;DHT22;538;42.654;23.376;2022-07-29T13:38:56;33.50;1.00
1103;DHT22;538;42.654;23.376;2022-07-29T13:41:23;33.40;1.00
1103;DHT22;538;42.654;23.376;2022-07-29T13:43:50;33.40;1.00
1103;DHT22;538;42.654;23.376;2022-07-29T13:46:17;33.20;1.00
1103;DHT22;538;42.654;23.376;2022-07-29T13:48:44;33.20;1.00
1103;DHT22;538;42.654;23.376;2022-07-29T13:51:11;33.00;1.00
1103;DHT22;538;42.654;23.376;2022-07-29T13:53:38;32.80;1.00
1103;DHT22;538;42.654;23.376;2022-07-29T13:56:07;32.70;1.00
1103;DHT22;538;42.654;23.376;2022-07-29T13:58:34;32.60;1.00
1103;DHT22;538;42.654;23.376;2022-07-29T14:01:02;32.50;1.00
1103;DHT22;538;42.654;23.376;2022-07-29T14:03:29;32.30;1.00
1103;DHT22;538;42.654;23.376;2022-07-29T14:05:57;32.10;1.00
1103;DHT22;538;42.654;23.376;2022-07-29T14:08:25;32.10;1.00
1103;DHT22;538;42.654;23.376;2022-07-29T14:10:53;32.10;1.00
1103;DHT22;538;42.654;23.376;2022-07-29T14:13:21;33.60;1.40
1103;DHT22;538;42.654;23.376;2022-07-29T14:15:49;32.20;1.00
1103;DHT22;538;42.654;23.376;2022-07-29T14:18:16;32.30;1.40
1103;DHT22;538;42.654;23.376;2022-07-29T14:20:43;32.40;1.00
1103;DHT22;538;42.654;23.376;2022-07-29T14:23:10;32.40;1.40
1103;DHT22;538;42.654;23.376;2022-07-29T14:25:38;33.30;1.00
1103;DHT22;538;42.654;23.376;2022-07-29T14:28:05;32.40;1.00
1103;DHT22;538;42.654;23.376;2022-07-29T14:30:34;32.30;1.10
1103;DHT22;538;42.654;23.376;2022-07-29T14:33:01;32.60;1.40
1103;DHT22;538;42.654;23.376;2022-07-29T14:35:29;32.50;1.00
1103;DHT22;538;42.654;23.376;2022-07-29T14:37:56;32.30;1.00
1103;DHT22;538;42.654;23.376;2022-07-29T14:40:24;32.10;1.00
1103;DHT22;538;42.654;23.376;2022-07-29T14:42:52;32.00;1.00
1103;DHT22;538;42.654;23.376;2022-07-29T14:45:20;31.80;1.00
1103;DHT22;538;42.654;23.376;2022-07-29T14:47:49;31.70;1.00
1103;DHT22;538;42.654;23.376;2022-07-29T14:50:17;31.60;1.00
1103;DHT22;538;42.654;23.376;2022-07-29T14:52:57;31.60;1.00
1103;DHT22;538;42.654;23.376;2022-07-29T14:55:25;31.60;1.00
1103;DHT22;538;42.654;23.376;2022-07-29T14:57:52;31.40;1.00
1103;DHT22;538;42.654;23.376;2022-07-29T15:00:20;31.30;1.00
1103;DHT22;538;42.654;23.376;2022-07-29T15:02:49;31.40;1.00
1103;DHT22;538;42.654;23.376;2022-07-29T15:05:16;31.60;1.00
1103;DHT22;538;42.654;23.376;2022-07-29T15:07:43;31.80;1.00
1103;DHT22;538;42.654;23.376;2022-07-29T15:10:11;31.90;1.00
1103;DHT22;538;42.654;23.376;2022-07-29T15:12:38;31.90;1.00
1103;DHT22;538;42.654;23.376;2022-07-29T15:15:06;32.00;1.00
1103;DHT22;538;42.654;23.376;2022-07-29T15:17:34;32.00;1.00
1103;DHT22;538;42.654;23.376;2022-07-29T15:20:03;32.00;1.00
1103;DHT22;538;42.654;23.376;2022-07-29T15:22:31;31.90;1.00
1103;DHT22;538;42.654;23.376;2022-07-29T15:24:58;31.80;1.00
1103;DHT22;538;42.654;23.376;2022-07-29T15:27:25;31.90;1.00
1103;DHT22;538;42.654;23.376;2022-07-29T15:29:53;31.80;1.00
1103;DHT22;538;42.654;23.376;2022-07-29T15:32:20;31.70;1.00
1103;DHT22;538;42.654;23.376;2022-07-29T15:34:47;31.70;1.00
1103;DHT22;538;42.654;23.376;2022-07-29T15:37:16;31.60;1.00
1103;DHT22;538;42.654;23.376;2022-07-29T15:39:43;31.50;1.00
1103;DHT22;538;42.654;23.376;2022-07-29T15:42:10;31.50;1.00
1103;DHT22;538;42.654;23.376;2022-07-29T15:44:37;30.40;1.00
1103;DHT22;538;42.654;23.376;2022-07-29T15:47:05;31.70;1.00
1103;DHT22;538;42.654;23.376;2022-07-29T15:49:35;31.80;1.00
1103;DHT22;538;42.654;23.376;2022-07-29T15:52:04;31.70;1.00
1103;DHT22;538;42.654;23.376;2022-07-29T15:54:34;31.70;1.00
1103;DHT22;538;42.654;23.376;2022-07-29T15:57:04;31.50;1.00
1103;DHT22;538;42.654;23.376;2022-07-29T15:59:32;31.30;1.00
1103;DHT22;538;42.654;23.376;2022-07-29T16:02:00;31.00;1.10
1103;DHT22;538;42.654;23.376;2022-07-29T16:04:27;30.80;1.30
1103;DHT22;538;42.654;23.376;2022-07-29T16:06:54;30.80;1.50
1103;DHT22;538;42.654;23.376;2022-07-29T16:09:22;30.70;1.80
1103;DHT22;538;42.654;23.376;2022-07-29T16:11:51;30.60;1.60
1103;DHT22;538;42.654;23.376;2022-07-29T16:14:18;30.50;1.70
1103;DHT22;538;42.654;23.376;2022-07-29T16:16:46;30.30;2.00
1103;DHT22;538;42.654;23.376;2022-07-29T16:19:14;30.10;1.90
1103;DHT22;538;42.654;23.376;2022-07-29T16:21:41;29.90;2.50
1103;DHT22;538;42.654;23.376;2022-07-29T16:24:08;29.80;3.50
1103;DHT22;538;42.654;23.376;2022-07-29T16:26:36;29.70;3.40